createdAt,value
2016-11-10T00:00:17.672Z,4.59
2016-11-10T00:01:17.657Z,4.51
2016-11-10T00:02:17.674Z,4.37
2016-11-10T00:03:17.711Z,4.57
2016-11-10T00:04:17.692Z,4.65
2016-11-10T00:05:17.659Z,4.64
2016-11-10T00:06:18.005Z,4.52
2016-11-10T00:07:17.674Z,4.59
2016-11-10T00:08:17.688Z,4.47
2016-11-10T00:09:18.237Z,4.5
2016-11-10T00:10:17.743Z,4.59
2016-11-10T00:11:17.797Z,4.55
2016-11-10T00:12:17.705Z,4.65
2016-11-10T00:13:17.829Z,4.64
2016-11-10T00:14:17.742Z,4.58
2016-11-10T00:15:17.648Z,4.5
2016-11-10T00:16:17.720Z,4.64
2016-11-10T00:17:17.680Z,4.62
2016-11-10T00:18:17.840Z,4.54
2016-11-10T00:19:17.731Z,4.7
2016-11-10T00:20:17.810Z,4.64
2016-11-10T00:21:17.686Z,4.64
2016-11-10T00:22:17.705Z,4.51
2016-11-10T00:23:18.690Z,4.64
2016-11-10T00:24:17.713Z,4.57
2016-11-10T00:25:17.804Z,4.47
2016-11-10T00:26:17.723Z,4.51
2016-11-10T00:27:17.702Z,4.54
2016-11-10T00:28:17.720Z,4.65
2016-11-10T00:29:17.785Z,4.59
2016-11-10T00:30:17.790Z,4.47
2016-11-10T00:31:17.805Z,4.65
2016-11-10T00:32:17.780Z,4.4
2016-11-10T00:33:17.735Z,4.39
2016-11-10T00:34:17.688Z,4.42
2016-11-10T00:35:17.749Z,4.57
2016-11-10T00:36:18.084Z,4.58
2016-11-10T00:37:17.768Z,4.47
2016-11-10T00:38:17.742Z,4.5
2016-11-10T00:39:17.787Z,4.64
2016-11-10T00:40:17.717Z,4.52
2016-11-10T00:41:17.725Z,4.65
2016-11-10T00:42:17.710Z,4.58
2016-11-10T00:43:17.735Z,4.5
2016-11-10T00:44:17.898Z,4.5
2016-11-10T00:45:18.333Z,4.64
2016-11-10T00:46:17.699Z,4.62
2016-11-10T00:47:17.705Z,4.5
2016-11-10T00:48:17.721Z,4.51
2016-11-10T00:49:17.686Z,4.55
2016-11-10T00:50:17.731Z,4.61
2016-11-10T00:51:17.670Z,4.57
2016-11-10T00:52:17.681Z,4.61
2016-11-10T00:53:17.741Z,4.5
2016-11-10T00:54:17.706Z,4.61
2016-11-10T00:55:17.740Z,4.62
2016-11-10T00:56:17.686Z,4.57
2016-11-10T00:57:17.943Z,4.52
2016-11-10T00:58:17.834Z,4.57
2016-11-10T00:59:17.667Z,4.57
2016-11-10T01:00:17.680Z,4.54
2016-11-10T01:01:17.903Z,4.51
2016-11-10T01:02:17.693Z,4.64
2016-11-10T01:03:17.699Z,4.62
2016-11-10T01:04:17.810Z,4.54
2016-11-10T01:05:17.683Z,4.65
2016-11-10T01:06:17.683Z,4.7
2016-11-10T01:07:17.687Z,4.55
2016-11-10T01:08:17.905Z,4.67
2016-11-10T01:09:17.728Z,4.42
2016-11-10T01:10:18.442Z,4.51
2016-11-10T01:11:17.679Z,4.55
2016-11-10T01:12:17.698Z,4.54
2016-11-10T01:13:17.698Z,4.61
2016-11-10T01:14:17.712Z,4.67
2016-11-10T01:15:17.696Z,4.55
2016-11-10T01:16:17.711Z,4.47
2016-11-10T01:17:17.721Z,4.43
2016-11-10T01:18:17.806Z,4.42
2016-11-10T01:19:17.686Z,4.58
2016-11-10T01:20:17.702Z,4.5
2016-11-10T01:21:17.673Z,4.65
2016-11-10T01:22:17.677Z,4.62
2016-11-10T01:23:17.741Z,4.55
2016-11-10T01:24:17.746Z,4.47
2016-11-10T01:25:17.799Z,4.62
2016-11-10T01:26:17.705Z,4.44
2016-11-10T01:27:17.769Z,4.47
2016-11-10T01:28:17.708Z,4.43
2016-11-10T01:29:17.702Z,4.39
2016-11-10T01:30:17.703Z,4.47
2016-11-10T01:31:17.725Z,4.37
2016-11-10T01:32:17.847Z,4.46
2016-11-10T01:33:17.722Z,4.61
2016-11-10T01:34:18.072Z,4.52
2016-11-10T01:35:17.721Z,4.52
2016-11-10T01:36:17.712Z,4.43
2016-11-10T01:37:17.724Z,4.46
2016-11-10T01:38:17.844Z,4.42
2016-11-10T01:39:17.679Z,4.51
2016-11-10T01:40:17.857Z,4.5
2016-11-10T01:41:17.711Z,4.51
2016-11-10T01:42:17.717Z,4.51
2016-11-10T01:43:17.740Z,4.47
2016-11-10T01:44:17.758Z,4.54
2016-11-10T01:45:17.717Z,4.5
2016-11-10T01:46:17.706Z,4.57
2016-11-10T01:47:17.882Z,4.44
2016-11-10T01:48:17.807Z,4.62
2016-11-10T01:49:17.733Z,4.46
2016-11-10T01:50:17.740Z,4.58
2016-11-10T01:51:17.719Z,4.59
2016-11-10T01:52:17.834Z,4.62
2016-11-10T01:53:17.721Z,4.57
2016-11-10T01:54:17.757Z,4.55
2016-11-10T01:55:17.728Z,4.47
2016-11-10T01:56:17.990Z,4.62
2016-11-10T01:57:17.834Z,4.59
2016-11-10T01:58:17.740Z,4.55
2016-11-10T01:59:17.888Z,4.42
2016-11-10T02:00:17.890Z,4.51
2016-11-10T02:01:17.741Z,4.47
2016-11-10T02:02:17.853Z,4.58
2016-11-10T02:03:17.772Z,4.54
2016-11-10T02:04:17.821Z,4.59
2016-11-10T02:05:17.887Z,4.52
2016-11-10T02:06:17.727Z,4.54
2016-11-10T02:07:17.720Z,4.44
2016-11-10T02:08:17.741Z,4.51
2016-11-10T02:09:17.823Z,4.52
2016-11-10T02:10:17.769Z,4.42
2016-11-10T02:11:17.740Z,4.47
2016-11-10T02:12:18.082Z,4.44
2016-11-10T02:13:17.847Z,4.5
2016-11-10T02:14:17.745Z,4.5
2016-11-10T02:15:17.757Z,4.4
2016-11-10T02:16:17.895Z,4.54
2016-11-10T02:17:17.733Z,4.51
2016-11-10T02:18:17.734Z,4.5
2016-11-10T02:19:17.746Z,4.54
2016-11-10T02:20:17.696Z,4.55
2016-11-10T02:21:17.735Z,4.54
2016-11-10T02:22:17.853Z,4.52
2016-11-10T02:23:17.773Z,4.43
2016-11-10T02:24:17.740Z,4.39
2016-11-10T02:25:17.702Z,4.58
2016-11-10T02:26:17.762Z,4.34
2016-11-10T02:27:18.038Z,4.51
2016-11-10T02:28:17.765Z,4.54
2016-11-10T02:29:17.743Z,4.46
2016-11-10T02:30:18.482Z,4.57
2016-11-10T02:31:18.000Z,4.57
2016-11-10T02:32:17.974Z,4.52
2016-11-10T02:33:17.855Z,4.52
2016-11-10T02:34:17.761Z,4.54
2016-11-10T02:35:17.727Z,4.52
2016-11-10T02:36:17.743Z,4.43
2016-11-10T02:37:17.714Z,4.61
2016-11-10T02:38:17.750Z,4.46
2016-11-10T02:39:17.709Z,4.57
2016-11-10T02:40:17.761Z,4.61
2016-11-10T02:41:17.741Z,4.67
2016-11-10T02:42:17.714Z,4.58
2016-11-10T02:43:17.768Z,4.62
2016-11-10T02:44:17.751Z,4.55
2016-11-10T02:45:17.735Z,4.65
2016-11-10T02:46:18.037Z,4.7
2016-11-10T02:47:17.808Z,4.58
2016-11-10T02:48:17.783Z,4.58
2016-11-10T02:49:17.727Z,4.61
2016-11-10T02:50:17.736Z,4.61
2016-11-10T02:51:17.723Z,4.58
2016-11-10T02:52:17.773Z,4.61
2016-11-10T02:53:17.851Z,4.62
2016-11-10T02:54:17.868Z,4.62
2016-11-10T02:55:17.776Z,4.79
2016-11-10T02:56:17.760Z,4.62
2016-11-10T02:57:17.867Z,4.62
2016-11-10T02:58:18.722Z,4.59
2016-11-10T02:59:18.062Z,4.76
2016-11-10T03:00:17.792Z,4.54
2016-11-10T03:01:17.856Z,4.69
2016-11-10T03:02:17.742Z,4.77
2016-11-10T03:03:17.885Z,4.72
2016-11-10T03:04:17.734Z,4.76
2016-11-10T03:05:18.060Z,4.69
2016-11-10T03:06:17.963Z,4.72
2016-11-10T03:07:17.779Z,4.62
2016-11-10T03:08:17.763Z,4.62
2016-11-10T03:09:17.742Z,4.79
2016-11-10T03:10:17.970Z,4.67
2016-11-10T03:11:17.769Z,4.79
2016-11-10T03:12:17.770Z,4.67
2016-11-10T03:13:17.800Z,4.76
2016-11-10T03:14:17.784Z,4.69
2016-11-10T03:15:17.765Z,4.79
2016-11-10T03:16:17.739Z,4.72
2016-11-10T03:17:17.806Z,4.83
2016-11-10T03:18:18.066Z,4.72
2016-11-10T03:19:17.758Z,4.83
2016-11-10T03:20:17.740Z,4.67
2016-11-10T03:21:17.803Z,4.7
2016-11-10T03:22:17.781Z,4.72
2016-11-10T03:23:17.794Z,4.69
2016-11-10T03:24:17.809Z,4.75
2016-11-10T03:25:17.800Z,4.69
2016-11-10T03:26:17.817Z,4.76
2016-11-10T03:27:17.779Z,4.76
2016-11-10T03:28:17.801Z,4.65
2016-11-10T03:29:17.827Z,4.76
2016-11-10T03:30:17.775Z,4.8
2016-11-10T03:31:17.813Z,4.77
2016-11-10T03:32:17.804Z,4.8
2016-11-10T03:33:17.794Z,4.73
2016-11-10T03:34:17.820Z,4.83
2016-11-10T03:35:17.783Z,4.7
2016-11-10T03:36:17.779Z,4.77
2016-11-10T03:37:17.776Z,4.83
2016-11-10T03:38:17.782Z,4.79
2016-11-10T03:39:17.776Z,4.72
2016-11-10T03:40:17.781Z,4.77
2016-11-10T03:41:17.791Z,4.75
2016-11-10T03:42:17.794Z,4.77
2016-11-10T03:43:17.817Z,4.7
2016-11-10T03:44:17.818Z,4.72
2016-11-10T03:45:17.846Z,4.76
2016-11-10T03:46:17.843Z,4.86
2016-11-10T03:47:17.811Z,4.73
2016-11-10T03:48:17.836Z,4.89
2016-11-10T03:49:17.862Z,4.69
2016-11-10T03:50:17.823Z,4.72
2016-11-10T03:51:17.815Z,4.92
2016-11-10T03:52:17.839Z,4.88
2016-11-10T03:53:17.836Z,4.77
2016-11-10T03:54:17.821Z,4.76
2016-11-10T03:55:17.826Z,4.59
2016-11-10T03:56:17.830Z,4.7
2016-11-10T03:57:17.834Z,4.73
2016-11-10T03:58:17.821Z,4.69
2016-11-10T03:59:17.834Z,4.58
2016-11-10T04:00:17.816Z,4.67
2016-11-10T04:01:17.834Z,4.76
2016-11-10T04:02:17.858Z,4.75
2016-11-10T04:03:17.853Z,4.77
2016-11-10T04:04:17.901Z,4.75
2016-11-10T04:05:17.843Z,4.86
2016-11-10T04:06:17.898Z,4.83
2016-11-10T04:07:17.996Z,4.77
2016-11-10T04:08:17.805Z,4.83
2016-11-10T04:09:17.899Z,4.84
2016-11-10T04:10:17.830Z,4.69
2016-11-10T04:11:17.819Z,4.86
2016-11-10T04:12:17.812Z,4.7
2016-11-10T04:13:17.835Z,4.88
2016-11-10T04:14:17.911Z,4.8
2016-11-10T04:15:17.794Z,4.83
2016-11-10T04:16:17.764Z,4.91
2016-11-10T04:17:17.904Z,4.94
2016-11-10T04:18:17.812Z,4.86
2016-11-10T04:19:17.921Z,4.8
2016-11-10T04:20:17.865Z,4.79
2016-11-10T04:21:17.816Z,4.86
2016-11-10T04:22:17.792Z,4.79
2016-11-10T04:23:17.816Z,4.89
2016-11-10T04:24:17.918Z,4.86
2016-11-10T04:25:17.824Z,4.77
2016-11-10T04:26:17.883Z,4.94
2016-11-10T04:27:17.837Z,4.79
2016-11-10T04:28:17.859Z,4.95
2016-11-10T04:29:17.824Z,4.89
2016-11-10T04:30:46.430Z,4.8
2016-11-10T04:31:17.815Z,4.95
2016-11-10T04:32:17.805Z,4.92
2016-11-10T04:33:17.854Z,4.89
2016-11-10T04:34:17.810Z,4.91
2016-11-10T04:35:17.823Z,4.89
2016-11-10T04:36:17.829Z,4.92
2016-11-10T04:37:17.822Z,4.88
2016-11-10T04:38:17.840Z,5.04
2016-11-10T04:39:17.818Z,4.95
2016-11-10T04:40:17.807Z,4.86
2016-11-10T04:41:17.869Z,4.99
2016-11-10T04:42:17.852Z,4.98
2016-11-10T04:43:17.851Z,4.98
2016-11-10T04:44:17.834Z,4.99
2016-11-10T04:45:17.826Z,4.86
2016-11-10T04:46:17.844Z,5.02
2016-11-10T04:47:17.835Z,4.77
2016-11-10T04:48:17.857Z,4.73
2016-11-10T04:49:17.819Z,4.86
2016-11-10T04:50:17.826Z,4.99
2016-11-10T04:51:17.844Z,4.79
2016-11-10T04:52:17.834Z,4.88
2016-11-10T04:53:17.888Z,4.96
2016-11-10T04:54:17.882Z,4.83
2016-11-10T04:55:17.830Z,4.94
2016-11-10T04:56:17.926Z,5.04
2016-11-10T04:57:17.859Z,4.86
2016-11-10T04:58:17.852Z,4.98
2016-11-10T04:59:17.854Z,5.01
2016-11-10T05:00:17.873Z,4.94
2016-11-10T05:01:17.918Z,4.79
2016-11-10T05:02:18.039Z,4.89
2016-11-10T05:03:17.870Z,4.99
2016-11-10T05:04:17.929Z,4.96
2016-11-10T05:05:17.928Z,4.73
2016-11-10T05:06:18.257Z,4.99
2016-11-10T05:07:17.842Z,5.02
2016-11-10T05:08:17.889Z,5.02
2016-11-10T05:09:18.100Z,5.01
2016-11-10T05:10:18.225Z,4.8
2016-11-10T05:11:17.867Z,4.89
2016-11-10T05:12:17.851Z,4.99
2016-11-10T05:13:18.761Z,4.96
2016-11-10T05:14:17.896Z,5.04
2016-11-10T05:15:17.851Z,4.83
2016-11-10T05:16:17.915Z,4.8
2016-11-10T05:17:17.900Z,5.01
2016-11-10T05:18:17.921Z,4.88
2016-11-10T05:19:17.872Z,4.91
2016-11-10T05:20:17.838Z,5.22
2016-11-10T05:21:17.941Z,4.99
2016-11-10T05:22:17.855Z,5.01
2016-11-10T05:23:17.926Z,4.89
2016-11-10T05:24:17.888Z,4.95
2016-11-10T05:25:17.858Z,4.94
2016-11-10T05:26:17.845Z,4.96
2016-11-10T05:27:17.867Z,5.09
2016-11-10T05:28:17.889Z,5.07
2016-11-10T05:29:17.967Z,5.09
2016-11-10T05:30:17.858Z,4.99
2016-11-10T05:31:17.868Z,5.12
2016-11-10T05:32:17.825Z,5.05
2016-11-10T05:33:17.933Z,5.13
2016-11-10T05:34:17.935Z,5.12
2016-11-10T05:35:17.859Z,4.99
2016-11-10T05:36:17.880Z,4.92
2016-11-10T05:37:17.901Z,5.02
2016-11-10T05:38:17.898Z,5.05
2016-11-10T05:39:17.885Z,4.94
2016-11-10T05:40:17.938Z,4.95
2016-11-10T05:41:17.964Z,5.1
2016-11-10T05:42:17.923Z,4.91
2016-11-10T05:43:17.943Z,4.94
2016-11-10T05:44:17.922Z,4.99
2016-11-10T05:45:17.992Z,5.04
2016-11-10T05:46:17.919Z,5.12
2016-11-10T05:47:17.901Z,4.96
2016-11-10T05:48:17.904Z,4.92
2016-11-10T05:49:18.773Z,5.01
2016-11-10T05:50:17.908Z,5.04
2016-11-10T05:51:17.881Z,5.01
2016-11-10T05:52:17.852Z,4.91
2016-11-10T05:53:17.932Z,5.04
2016-11-10T05:54:17.887Z,4.91
2016-11-10T05:55:17.874Z,4.92
2016-11-10T05:56:17.913Z,4.95
2016-11-10T05:57:17.935Z,4.94
2016-11-10T05:58:17.941Z,4.94
2016-11-10T05:59:17.922Z,4.95
2016-11-10T06:00:17.989Z,5.01
2016-11-10T06:01:17.933Z,5.02
2016-11-10T06:02:17.923Z,5.01
2016-11-10T06:03:17.970Z,5.01
2016-11-10T06:04:17.915Z,5.02
2016-11-10T06:05:17.939Z,4.94
2016-11-10T06:06:17.917Z,5.09
2016-11-10T06:07:17.933Z,5.04
2016-11-10T06:08:17.961Z,4.96
2016-11-10T06:09:17.901Z,5.13
2016-11-10T06:10:17.908Z,4.99
2016-11-10T06:11:17.865Z,4.96
2016-11-10T06:12:17.887Z,5.05
2016-11-10T06:13:17.901Z,4.98
2016-11-10T06:14:17.895Z,5.04
2016-11-10T06:15:18.115Z,5.05
2016-11-10T06:16:17.901Z,4.96
2016-11-10T06:17:17.957Z,4.95
2016-11-10T06:18:17.904Z,5.05
2016-11-10T06:19:18.001Z,4.83
2016-11-10T06:20:17.890Z,4.98
2016-11-10T06:21:17.922Z,5.04
2016-11-10T06:22:17.954Z,5.14
2016-11-10T06:23:17.925Z,5.01
2016-11-10T06:24:17.986Z,4.98
2016-11-10T06:25:17.921Z,4.91
2016-11-10T06:26:17.929Z,5.1
2016-11-10T06:27:17.909Z,5.07
2016-11-10T06:28:18.022Z,4.96
2016-11-10T06:29:17.952Z,5.02
2016-11-10T06:30:18.077Z,5.05
2016-11-10T06:31:18.294Z,5.12
2016-11-10T06:32:17.900Z,5.04
2016-11-10T06:33:18.274Z,4.98
2016-11-10T06:34:18.002Z,5.04
2016-11-10T06:35:18.165Z,4.95
2016-11-10T06:36:17.987Z,4.94
2016-11-10T06:37:17.925Z,5.12
2016-11-10T06:38:18.051Z,4.92
2016-11-10T06:39:18.011Z,5.04
2016-11-10T06:40:17.908Z,4.91
2016-11-10T06:41:17.968Z,4.95
2016-11-10T06:42:17.928Z,5.09
2016-11-10T06:43:17.959Z,4.95
2016-11-10T06:44:17.944Z,4.86
2016-11-10T06:45:18.000Z,4.92
2016-11-10T06:46:17.922Z,4.96
2016-11-10T06:47:17.905Z,5.09
2016-11-10T06:48:17.954Z,5.01
2016-11-10T06:49:17.998Z,5.07
2016-11-10T06:50:17.914Z,5.01
2016-11-10T06:51:17.897Z,4.94
2016-11-10T06:52:17.967Z,4.95
2016-11-10T06:53:17.999Z,4.98
2016-11-10T06:54:18.044Z,4.98
2016-11-10T06:55:18.003Z,4.86
2016-11-10T06:56:17.972Z,4.91
2016-11-10T06:57:18.076Z,4.91
2016-11-10T06:58:17.923Z,4.96
2016-11-10T06:59:18.079Z,4.96
2016-11-10T07:00:17.929Z,5.02
2016-11-10T07:01:17.900Z,4.99
2016-11-10T07:02:17.942Z,4.98
2016-11-10T07:03:17.956Z,5.04
2016-11-10T07:04:17.964Z,4.98
2016-11-10T07:05:17.929Z,5.02
2016-11-10T07:06:17.922Z,5.07
2016-11-10T07:07:17.909Z,5.04
2016-11-10T07:08:17.941Z,4.95
2016-11-10T07:09:18.117Z,4.79
2016-11-10T07:10:17.913Z,5.02
2016-11-10T07:11:17.919Z,5.07
2016-11-10T07:12:17.926Z,4.99
2016-11-10T07:13:17.948Z,4.92
2016-11-10T07:14:17.939Z,5.04
2016-11-10T07:15:17.961Z,5.01
2016-11-10T07:16:17.938Z,5.07
2016-11-10T07:17:17.991Z,4.98
2016-11-10T07:18:17.952Z,4.91
2016-11-10T07:19:17.945Z,5.1
2016-11-10T07:20:17.923Z,5.01
2016-11-10T07:21:17.929Z,5.16
2016-11-10T07:22:17.941Z,5.02
2016-11-10T07:23:17.943Z,5.14
2016-11-10T07:24:17.929Z,5.13
2016-11-10T07:25:17.914Z,5.05
2016-11-10T07:26:17.977Z,5.2
2016-11-10T07:27:17.970Z,4.95
2016-11-10T07:28:17.949Z,5.04
2016-11-10T07:29:17.970Z,5.17
2016-11-10T07:30:17.916Z,4.91
2016-11-10T07:31:17.984Z,5.2
2016-11-10T07:32:17.919Z,5.1
2016-11-10T07:33:17.954Z,5.01
2016-11-10T07:34:17.955Z,5.16
2016-11-10T07:35:17.945Z,5.12
2016-11-10T07:36:17.932Z,5.17
2016-11-10T07:37:17.948Z,5.2
2016-11-10T07:38:17.960Z,5.32
2016-11-10T07:39:17.951Z,4.99
2016-11-10T07:40:17.925Z,5.07
2016-11-10T07:41:17.943Z,5.23
2016-11-10T07:42:17.927Z,5.1
2016-11-10T07:43:17.954Z,5.28
2016-11-10T07:44:18.004Z,5.19
2016-11-10T07:45:17.933Z,5.19
2016-11-10T07:46:17.930Z,4.95
2016-11-10T07:47:17.948Z,4.99
2016-11-10T07:48:17.940Z,5.19
2016-11-10T07:49:17.976Z,5.14
2016-11-10T07:50:17.929Z,5.12
2016-11-10T07:51:17.948Z,5.2
2016-11-10T07:52:17.941Z,5.22
2016-11-10T07:53:17.964Z,5.16
2016-11-10T07:54:17.990Z,5.05
2016-11-10T07:55:17.947Z,4.98
2016-11-10T07:56:17.941Z,5.17
2016-11-10T07:57:17.971Z,5.05
2016-11-10T07:58:18.055Z,5.09
2016-11-10T07:59:17.954Z,5.16
2016-11-10T08:00:17.951Z,5.17
2016-11-10T08:01:17.987Z,5.27
2016-11-10T08:02:17.989Z,5.27
2016-11-10T08:03:17.967Z,5.23
2016-11-10T08:04:19.074Z,5.32
2016-11-10T08:05:17.972Z,5.13
2016-11-10T08:06:18.016Z,5.13
2016-11-10T08:07:18.002Z,5.25
2016-11-10T08:08:18.599Z,5.23
2016-11-10T08:09:17.964Z,5.05
2016-11-10T08:10:18.322Z,5.53
2016-11-10T08:11:18.041Z,5.35
2016-11-10T08:12:18.047Z,5.27
2016-11-10T08:13:17.971Z,5.38
2016-11-10T08:14:17.973Z,5.16
2016-11-10T08:15:17.954Z,5.28
2016-11-10T08:16:17.970Z,5.27
2016-11-10T08:17:17.976Z,5.17
2016-11-10T08:18:17.996Z,5.45
2016-11-10T08:19:17.992Z,5.35
2016-11-10T08:20:17.993Z,5.23
2016-11-10T08:21:18.012Z,5.37
2016-11-10T08:22:17.968Z,5.48
2016-11-10T08:23:18.047Z,5.38
2016-11-10T08:24:18.031Z,5.43
2016-11-10T08:25:17.987Z,5.57
2016-11-10T08:26:18.015Z,5.3
2016-11-10T08:27:18.028Z,5.59
2016-11-10T08:28:18.831Z,5.46
2016-11-10T08:29:18.050Z,5.52
2016-11-10T08:30:18.011Z,5.55
2016-11-10T08:31:21.359Z,5.66
2016-11-10T08:32:17.996Z,5.52
2016-11-10T08:33:17.995Z,5.43
2016-11-10T08:34:17.992Z,5.43
2016-11-10T08:35:18.006Z,5.64
2016-11-10T08:36:18.067Z,5.68
2016-11-10T08:37:18.012Z,5.77
2016-11-10T08:38:18.050Z,5.67
2016-11-10T08:39:18.025Z,5.59
2016-11-10T08:40:18.000Z,5.63
2016-11-10T08:41:17.977Z,5.73
2016-11-10T08:42:17.999Z,5.63
2016-11-10T08:43:18.163Z,5.66
2016-11-10T08:44:17.979Z,5.75
2016-11-10T08:45:18.012Z,5.71
2016-11-10T08:46:17.999Z,5.6
2016-11-10T08:47:17.988Z,5.59
2016-11-10T08:48:17.991Z,5.68
2016-11-10T08:49:18.003Z,5.68
2016-11-10T08:50:17.995Z,5.92
2016-11-10T08:51:18.001Z,5.71
2016-11-10T08:52:18.016Z,5.78
2016-11-10T08:53:18.030Z,5.91
2016-11-10T08:54:17.996Z,5.71
2016-11-10T08:55:17.985Z,5.74
2016-11-10T08:56:18.004Z,5.89
2016-11-10T08:57:18.001Z,5.85
2016-11-10T08:58:17.998Z,5.78
2016-11-10T08:59:17.988Z,5.85
2016-11-10T09:00:18.030Z,5.89
2016-11-10T09:01:18.010Z,5.89
2016-11-10T09:02:18.059Z,5.85
2016-11-10T09:03:18.053Z,5.91
2016-11-10T09:04:18.034Z,5.91
2016-11-10T09:05:18.060Z,6.01
2016-11-10T09:06:18.081Z,5.95
2016-11-10T09:07:18.093Z,5.95
2016-11-10T09:08:21.206Z,6
2016-11-10T09:09:18.122Z,5.89
2016-11-10T09:10:18.074Z,6.1
2016-11-10T09:11:18.081Z,5.93
2016-11-10T09:12:18.012Z,6.07
2016-11-10T09:13:18.024Z,6.03
2016-11-10T09:14:18.095Z,6.07
2016-11-10T09:15:18.039Z,5.96
2016-11-10T09:16:18.045Z,6.21
2016-11-10T09:17:18.004Z,5.95
2016-11-10T09:18:18.043Z,6.03
2016-11-10T09:19:18.103Z,6.03
2016-11-10T09:20:18.059Z,5.96
2016-11-10T09:21:18.066Z,6.14
2016-11-10T09:22:18.071Z,6.16
2016-11-10T09:23:18.080Z,6.03
2016-11-10T09:24:18.088Z,6.19
2016-11-10T09:25:18.007Z,6.25
2016-11-10T09:26:18.024Z,6.13
2016-11-10T09:27:18.046Z,6.21
2016-11-10T09:28:18.006Z,6.06
2016-11-10T09:29:18.039Z,6.16
2016-11-10T09:30:18.028Z,6.18
2016-11-10T09:31:18.041Z,6.18
2016-11-10T09:32:18.035Z,6.18
2016-11-10T09:33:18.044Z,6.13
2016-11-10T09:34:18.077Z,6.16
2016-11-10T09:35:18.065Z,6.3
2016-11-10T09:36:18.035Z,6.26
2016-11-10T09:37:18.026Z,6.28
2016-11-10T09:38:18.147Z,6.19
2016-11-10T09:39:18.140Z,6.22
2016-11-10T09:40:18.099Z,6.19
2016-11-10T09:41:18.051Z,6.21
2016-11-10T09:42:18.042Z,6.06
2016-11-10T09:43:18.070Z,6.16
2016-11-10T09:44:18.066Z,6.07
2016-11-10T09:45:18.163Z,6.19
2016-11-10T09:46:18.040Z,6.09
2016-11-10T09:47:18.060Z,6
2016-11-10T09:48:18.018Z,6.11
2016-11-10T09:49:18.052Z,6.14
2016-11-10T09:50:18.041Z,6.07
2016-11-10T09:51:18.051Z,5.96
2016-11-10T09:52:18.080Z,6.11
2016-11-10T09:53:18.051Z,5.92
2016-11-10T09:54:18.028Z,6.03
2016-11-10T09:55:18.079Z,6.09
2016-11-10T09:56:18.099Z,5.92
2016-11-10T09:57:18.039Z,6.13
2016-11-10T09:58:18.018Z,6.26
2016-11-10T09:59:18.072Z,6.1
2016-11-10T10:00:18.121Z,6.1
2016-11-10T10:01:18.095Z,6.14
2016-11-10T10:02:18.064Z,6.16
2016-11-10T10:03:18.107Z,6.38
2016-11-10T10:04:18.085Z,6.04
2016-11-10T10:05:18.047Z,6.25
2016-11-10T10:06:18.093Z,6.04
2016-11-10T10:07:18.059Z,6.04
2016-11-10T10:08:18.067Z,6.07
2016-11-10T10:09:18.082Z,6.1
2016-11-10T10:10:18.053Z,6.09
2016-11-10T10:11:18.059Z,6.01
2016-11-10T10:12:18.050Z,6.21
2016-11-10T10:13:18.101Z,6.04
2016-11-10T10:14:18.071Z,6.03
2016-11-10T10:15:18.078Z,5.96
2016-11-10T10:16:18.062Z,6.13
2016-11-10T10:17:18.122Z,6.01
2016-11-10T10:18:18.124Z,5.96
2016-11-10T10:19:18.113Z,6.09
2016-11-10T10:20:18.114Z,6.03
2016-11-10T10:21:18.144Z,5.95
2016-11-10T10:22:18.146Z,6.04
2016-11-10T10:23:18.165Z,6.06
2016-11-10T10:24:18.116Z,5.92
2016-11-10T10:25:18.072Z,6.1
2016-11-10T10:26:18.075Z,5.98
2016-11-10T10:27:18.113Z,6.01
2016-11-10T10:28:18.203Z,6.04
2016-11-10T10:29:18.107Z,6.01
2016-11-10T10:30:18.065Z,6.03
2016-11-10T10:31:18.078Z,5.93
2016-11-10T10:32:18.098Z,6.07
2016-11-10T10:33:18.094Z,6.13
2016-11-10T10:34:18.069Z,5.95
2016-11-10T10:35:18.113Z,6.01
2016-11-10T10:36:18.537Z,5.93
2016-11-10T10:37:18.062Z,5.89
2016-11-10T10:38:18.178Z,5.85
2016-11-10T10:39:18.075Z,5.93
2016-11-10T10:40:18.116Z,5.81
2016-11-10T10:41:18.211Z,5.88
2016-11-10T10:42:18.119Z,5.93
2016-11-10T10:43:18.121Z,5.93
2016-11-10T10:44:18.129Z,5.86
2016-11-10T10:45:18.116Z,5.83
2016-11-10T10:46:18.074Z,5.91
2016-11-10T10:47:18.059Z,5.83
2016-11-10T10:48:18.091Z,6.04
2016-11-10T10:49:18.143Z,5.95
2016-11-10T10:50:18.083Z,5.93
2016-11-10T10:51:18.107Z,5.86
2016-11-10T10:52:18.120Z,5.92
2016-11-10T10:53:18.073Z,5.91
2016-11-10T10:54:18.091Z,5.96
2016-11-10T10:55:18.084Z,5.75
2016-11-10T10:56:18.074Z,5.86
2016-11-10T10:57:18.069Z,5.93
2016-11-10T10:58:18.105Z,5.91
2016-11-10T10:59:18.079Z,5.95
2016-11-10T11:00:18.079Z,5.91
2016-11-10T11:01:18.097Z,5.96
2016-11-10T11:02:18.101Z,5.86
2016-11-10T11:03:18.089Z,6.07
2016-11-10T11:04:18.102Z,5.98
2016-11-10T11:05:18.107Z,6.07
2016-11-10T11:06:18.085Z,6.01
2016-11-10T11:07:18.081Z,6.01
2016-11-10T11:08:18.104Z,6.1
2016-11-10T11:09:18.082Z,5.96
2016-11-10T11:10:18.072Z,6.13
2016-11-10T11:11:18.146Z,6.13
2016-11-10T11:12:18.102Z,6.21
2016-11-10T11:13:18.144Z,6.21
2016-11-10T11:14:18.116Z,6.1
2016-11-10T11:15:18.075Z,6.32
2016-11-10T11:16:18.120Z,6.3
2016-11-10T11:17:18.085Z,6.4
2016-11-10T11:18:18.177Z,6.29
2016-11-10T11:19:18.091Z,6.3
2016-11-10T11:20:18.219Z,6.28
2016-11-10T11:21:18.165Z,6.28
2016-11-10T11:22:18.104Z,6.18
2016-11-10T11:23:18.125Z,6.26
2016-11-10T11:24:18.165Z,6.29
2016-11-10T11:25:18.146Z,6.41
2016-11-10T11:26:18.171Z,6.19
2016-11-10T11:27:18.145Z,6.38
2016-11-10T11:28:18.123Z,6.28
2016-11-10T11:29:18.115Z,6.35
2016-11-10T11:30:18.094Z,6.36
2016-11-10T11:31:18.133Z,6.3
2016-11-10T11:32:18.120Z,6.3
2016-11-10T11:33:18.114Z,6.3
2016-11-10T11:34:18.165Z,6.26
2016-11-10T11:35:18.137Z,6.35
2016-11-10T11:36:18.149Z,6.36
2016-11-10T11:37:18.155Z,6.41
2016-11-10T11:38:18.206Z,6.51
2016-11-10T11:39:18.173Z,6.44
2016-11-10T11:40:18.194Z,6.47
2016-11-10T11:41:18.129Z,6.47
2016-11-10T11:42:18.144Z,6.48
2016-11-10T11:43:18.112Z,6.38
2016-11-10T11:44:18.280Z,6.44
2016-11-10T11:45:18.123Z,6.43
2016-11-10T11:46:18.146Z,6.62
2016-11-10T11:47:18.173Z,6.61
2016-11-10T11:48:18.128Z,6.65
2016-11-10T11:49:18.165Z,6.61
2016-11-10T11:50:18.126Z,6.59
2016-11-10T11:51:18.133Z,6.59
2016-11-10T11:52:18.115Z,6.51
2016-11-10T11:53:18.213Z,6.58
2016-11-10T11:54:18.134Z,6.53
2016-11-10T11:55:18.189Z,6.56
2016-11-10T11:56:18.146Z,6.44
2016-11-10T11:57:18.133Z,6.47
2016-11-10T11:58:18.166Z,6.48
2016-11-10T11:59:18.145Z,6.48
2016-11-10T12:00:18.138Z,6.43
2016-11-10T12:01:18.146Z,6.35
2016-11-10T12:02:18.138Z,6.4
2016-11-10T12:03:18.165Z,6.46
2016-11-10T12:04:18.169Z,6.41
2016-11-10T12:05:18.153Z,6.28
2016-11-10T12:06:18.154Z,6.36
2016-11-10T12:07:18.141Z,6.44
2016-11-10T12:08:18.163Z,6.32
2016-11-10T12:09:18.209Z,6.35
2016-11-10T12:10:18.202Z,6.4
2016-11-10T12:11:18.170Z,6.3
2016-11-10T12:12:18.161Z,6.25
2016-11-10T12:13:18.179Z,6.36
2016-11-10T12:14:18.186Z,6.44
2016-11-10T12:15:18.177Z,6.3
2016-11-10T12:16:18.184Z,6.3
2016-11-10T12:17:18.163Z,6.11
2016-11-10T12:18:18.198Z,6.26
2016-11-10T12:19:18.191Z,6.25
2016-11-10T12:20:18.176Z,6.29
2016-11-10T12:21:18.157Z,6.25
2016-11-10T12:22:18.176Z,6.26
2016-11-10T12:23:18.159Z,6.28
2016-11-10T12:24:18.187Z,6.19
2016-11-10T12:25:18.130Z,6.09
2016-11-10T12:26:18.156Z,6.19
2016-11-10T12:27:18.211Z,6.26
2016-11-10T12:28:18.170Z,6.29
2016-11-10T12:29:18.156Z,6.19
2016-11-10T12:30:18.163Z,6.35
2016-11-10T12:31:18.130Z,6.11
2016-11-10T12:32:18.207Z,6.22
2016-11-10T12:33:18.831Z,6.26
2016-11-10T12:34:18.221Z,6.29
2016-11-10T12:35:18.214Z,6.38
2016-11-10T12:36:18.226Z,6.35
2016-11-10T12:37:18.165Z,6.35
2016-11-10T12:38:18.226Z,6.36
2016-11-10T12:39:18.223Z,6.3
2016-11-10T12:40:18.223Z,6.33
2016-11-10T12:41:18.265Z,6.38
2016-11-10T12:42:18.238Z,6.43
2016-11-10T12:43:18.192Z,6.32
2016-11-10T12:44:18.214Z,6.41
2016-11-10T12:45:18.151Z,6.36
2016-11-10T12:46:18.212Z,6.44
2016-11-10T12:47:18.780Z,6.3
2016-11-10T12:48:18.163Z,6.51
2016-11-10T12:49:18.169Z,6.4
2016-11-10T12:50:18.168Z,6.4
2016-11-10T12:51:18.159Z,6.38
2016-11-10T12:52:18.173Z,6.26
2016-11-10T12:53:18.179Z,6.25
2016-11-10T12:54:18.236Z,6.3
2016-11-10T12:55:18.182Z,6.11
2016-11-10T12:56:18.247Z,6.19
2016-11-10T12:57:18.217Z,6.19
2016-11-10T12:58:18.182Z,6.1
2016-11-10T12:59:18.289Z,6.21
2016-11-10T13:00:18.208Z,6.21
2016-11-10T13:01:18.189Z,6.18
2016-11-10T13:02:18.225Z,6.22
2016-11-10T13:03:18.233Z,6.25
2016-11-10T13:04:18.218Z,6.32
2016-11-10T13:05:18.184Z,6.25
2016-11-10T13:06:18.272Z,6.33
2016-11-10T13:07:18.276Z,6.4
2016-11-10T13:08:18.205Z,6.22
2016-11-10T13:09:18.224Z,6.14
2016-11-10T13:10:18.211Z,6.25
2016-11-10T13:11:18.219Z,6.21
2016-11-10T13:12:18.224Z,6.18
2016-11-10T13:13:18.270Z,6.21
2016-11-10T13:14:18.254Z,6.14
2016-11-10T13:15:18.247Z,6.21
2016-11-10T13:16:18.231Z,6.16
2016-11-10T13:17:18.311Z,6.1
2016-11-10T13:18:18.253Z,6.19
2016-11-10T13:19:18.328Z,6.09
2016-11-10T13:20:18.244Z,5.98